AirNav   Everest Fuels
 
 413 users online  

0MD6 Walters Airport
Mount Airy, Maryland, USA

GOING TO MOUNT AIRY?


FAA INFORMATION EFFECTIVE 22 APRIL 2021

Location

FAA Identifier: 0MD6
Lat/Long: 39-22-52.3720N 077-06-20.9310W
39-22.872867N 077-06.348850W
39.3812144,-77.1058142
(estimated)
Elevation: 750 ft. / 229 m (estimated)
Variation: 10W (1985)
From city: 3 miles NE of MOUNT AIRY, MD
Time zone: UTC -4 (UTC -5 during Standard Time)
Zip code: 21771

Airport Operations

Airport use: Private use. Permission required prior to landing
Activation date: 12/1977
Control tower: no
ARTCC: WASHINGTON CENTER
FSS: LEESBURG FLIGHT SERVICE STATION
Attendance: UNATNDD
Wind indicator: yes
Segmented circle: no

Airport Communications

WX AWOS-3 at FDK (13 nm W): 124.875 (301-600-1457)
WX AWOS-3PT at GAI (13 nm S): 128.275 (301-977-2971)
WX AWOS-3 at DMW (14 nm N): 121.25 (410-876-1281)

Nearby radio navigation aids

VOR radial/distance  VOR name  Freq  Var
EMIr229/9.0WESTMINSTER VORTAC117.9008W
FDKr106/(12.6)FREDERICK VOR109.0008W
BALr312/24.2BALTIMORE VORTAC115.1011W
DCAr003/31.5WASHINGTON VOR/DME111.0009W
AMLr040/31.6ARMEL VOR/DME113.5008W
MRBr097/34.4MARTINSBURG VORTAC112.1007W
ADWr352/36.2ANDREWS VORTAC113.1010W
HGRr126/(39.6)HAGERSTOWN VOR109.8007W

 
NDB name  Hdg/Dist  Freq  Var  ID
ELLICOTT301/16.337111WFND ..-. -. -..
GEORGETOWN011/27.132309WGTN --. - -.
OXONN005/37.133211WDCA -.. -.-. .-

Airport Services

Runway Information

Runway 5/23

Dimensions: 1800 x 60 ft. / 549 x 18 m
Surface: turf
RUNWAY 5  RUNWAY 23
Traffic pattern: rightright

Airport Ownership and Management from official FAA records

Ownership: Privately-owned
Owner: DON C WALTERS
7017 WATERSVILLE ROAD
MT AIRY, MD 21771
Phone 240-285-0500
Manager: DON C WALTERS
7017 WATERSVILLE ROAD
MT AIRY, MD 21771
Phone 240-285-0500

Airport Operational Statistics

Aircraft based on the field: 1
Single engine airplanes: 1
    

Additional Remarks

FOR CD CTC POTOMAC APCH AT 866-429-5882.

Instrument Procedures

There are no published instrument procedures at 0MD6.

Some nearby airports with instrument procedures:

2W2 - Clearview Airpark (7 nm NE)
W50 - Davis Airport (9 nm S)
KFDK - Frederick Municipal Airport (13 nm W)
KGAI - Montgomery County Airpark (13 nm S)
KDMW - Carroll County Regional Airport/Jack B Poage Field (14 nm N)
 
Loc | Ops | Rwys | IFR | FBO | Links
Com | Nav | Svcs | Stats | Notes
Area around 0MD6 (Walters Airport)
 
Road maps at: MapQuest Bing Google
 
Aerial photo
No photo
 
Sectional chart

 
Airport distance calculator
Flying to Walters Airport? Find the distance to fly.

From to 0MD6

Sunrise and sunset
Times for 11-May-2021
 Local
(UTC-4)
 Zulu
(UTC)
Morning civil twilight05:3009:30
Sunrise05:5909:59
Sunset20:1000:10
Evening civil twilight20:4000:40

Current date and time
Zulu (UTC)  11-May-2021 07:12:58
Local (UTC-4)  11-May-2021 03:12:58
 
METAR
KFDK 
12nm W 
110655Z AUTO 00000KT 10SM CLR 09/07 A3008 RMK AO2
KGAI 
13nm S 
110656Z AUTO 31003KT 10SM CLR 08/05 A3007 RMK AO2 SLP199 T00780050
KDMW 
14nm N 
110655Z AUTO 29004KT 10SM SCT110 12/02 A3006 RMK AO2
KBWI 
23nm SE 
110654Z 00000KT 10SM BKN140 OVC250 11/03 A3005 RMK AO2 SLP175 T01060033
KFME 
24nm SE 
110655Z AUTO 00000KT 10SM CLR 06/06 A3009 RMK AO1
TAF
KBWI 
23nm SE 
110520Z 1106/1212 32004KT P6SM BKN250 FM111400 27008KT P6SM SCT100 FM111800 28012G24KT P6SM SCT070 FM120000 32008KT P6SM BKN080
NOTAMs
Click for the latest NOTAMs
NOTAMs are issued by the DoD/FAA and will open in a separate window not controlled by AirNav.

 

 
 

Would you like to see your business listed on this page?

 If your business provides an interesting product or service to pilots, flight crews, aircraft, or users of the Walters Airport, you should consider listing it here.  To start the listing process, click on the button below
 
Add a business
 

Other Pages about Walters Airport

Update a link
 
Copyright © AirNav, LLC. All rights reserved. Privacy Policy  Contact